NCAR-RAP Real-Time Weather Data

Output produced by METARs form (24 April 2018  22:58 UTC)
found at http://weather.rap.ucar.edu/surface/
 
RJSR 241000Z 02006KT 8000 -RA FEW003 SCT010 BKN035 10/10 Q1010
RJSR 240900Z 03005KT 8000 -RA FEW003 SCT010 BKN035 10/10 Q1010
RJSR 240800Z 03005KT 360V060 8000 -RA FEW003 SCT010 BKN040 11/11 Q1010
RJSR 240700Z 04005KT 360V060 8000 -RA FEW005 SCT012 BKN050 12/12 Q1011
RJSR 240600Z 04004KT 360V070 8000 -RA FEW005 SCT012 BKN040 12/12 Q1012
RJSR 240500Z 04004KT 360V070 8000 -RA FEW005 SCT012 BKN030 13/13 Q1012
RJSR 240400Z VRB02KT 8000 -RA FEW005 SCT010 BKN040 13/13 Q1013
RJSR 240300Z VRB02KT 9999 -RA FEW010 SCT030 BKN060 13/13 Q1014
RJSR 240200Z 05003KT 350V100 9999 -RA FEW010 SCT030 BKN050 13/10 Q1015
RJSR 240100Z VRB02KT 9999 -RA FEW010 SCT030 BKN050 12/09 Q1015
RJSR 240000Z VRB01KT 9999 FEW010 SCT100 BKN/// 12/09 Q1015
RJSR 232300Z VRB01KT 9999 FEW005 BKN060 BKN070 11/11 Q1016
RJSR 231000Z 02003KT 340V050 9999 FEW040 SCT120 BKN/// 12/05 Q1020
RJSR 230900Z 05004KT 9999 FEW040 BKN/// 13/05 Q1020
RJSR 230800Z 04005KT 350V080 9999 FEW040 BKN/// 15/06 Q1019
RJSR 230700Z 04005KT 340V060 9999 FEW040 BKN/// 16/07 Q1020
RJSR 230600Z 05006KT 010V090 9999 FEW040 BKN/// 16/07 Q1019
RJSR 230500Z 03009KT 340V070 9999 FEW040 BKN/// 16/07 Q1020
RJSR 230400Z 07009KT 360V100 9999 FEW040 BKN/// 17/07 Q1020
RJSR 230300Z 05010KT 020V090 9999 FEW040 BKN/// 16/07 Q1021
RJSR 230200Z 06008KT 020V090 9999 FEW040 BKN/// 14/06 Q1022
RJSR 230100Z 07008KT 010V110 9999 FEW040 BKN/// 14/06 Q1023
RJSR 230000Z 07007KT 030V100 9999 FEW020 BKN/// 12/06 Q1023
RJSR 222300Z 05005KT 360V100 9999 FEW020 BKN/// 11/05 Q1023